Forside
METAR-TAF:

METAR-TAF

Lufthavne :

Chicago, Illinois, USA

Breddekreds: 41-47-03N, længdekreds: 087-45-19W, højde: 188 m

Aktuelle vejr

Denne rapport blev lavet for 57 minutter siden, kl. 06:53 UTC
Vind 7 kt fra sydsydvest
Temperatur 4°C
Fugtighed 70%
Tryk 1017 hPa
Sigt: 16.1 km
skyfri

METAR: KMDW 290653Z 21007KT 10SM CLR 04/M01 A3003 RMK AO2 SLP174 T00391006 $

Tid: 01:50 (07:50 UTC)

Vejrudsigter

Denne rapport blev lavet for 2 timer og 15 minutter siden, kl. 05:35 UTC
Foreløbig gælder fra 29 på 06 UTC til 30 på 12 UTC
Vind 11 kt fra sydvest
Sigt: 10 km
Spredte skyer i en højde af 25000 ft
Fra 29 på 2000 UTC
Vind 13 kt fra vestnordvest med vindstød på up til 20 kt
Sigt: 10 km
Spredte skyer i en højde af 3500 ft
Brudte skyer i en højde af 20000 ft
Fra 30 på 0100 UTC
Vind 16 kt fra nordnordvest med vindstød på up til 25 kt
Sigt: 10 km
Nogle få skyer i en højde af 2500 ft
Brudte skyer i en højde af 3500 ft

TAF: KMDW 290535Z 2906/3012 23011KT P6SM SCT250 FM292000 30013G20KT P6SM SCT035 BKN200 FM300100 34016G25KT P6SM FEW025 BKN035

Vejrobservationer og prognoser fra mere end 4000 lufthavne (METAR og TAF).

De gule og røde prikker repræsenterer de meteorologiske stationer.

Flyt musen over at se navnet på stationen.

Så klik over at se vejr observationer og prognoser.

At skifte det kort: Klik på de grønne knapper med et sort kors for at zoome ind; på den grønne knap med en bindestreg for at zoome ud; eller på de grønne pile for tilstødende kort.


METAR-TAF: